sensor_id;sensor_type;location;lat;lon;timestamp;P1;durP1;ratioP1;P2;durP2;ratioP2
13291;SDS011;6714;53.056;8.690;2022-08-11T00:01:21;1.97;;;1.87;;
13291;SDS011;6714;53.056;8.690;2022-08-11T00:04:05;2.53;;;2.00;;
13291;SDS011;6714;53.056;8.690;2022-08-11T00:06:48;2.40;;;2.30;;
13291;SDS011;6714;53.056;8.690;2022-08-11T00:09:31;2.20;;;2.10;;
13291;SDS011;6714;53.056;8.690;2022-08-11T00:12:14;2.30;;;2.10;;
13291;SDS011;6714;53.056;8.690;2022-08-11T00:14:57;2.20;;;2.00;;
13291;SDS011;6714;53.056;8.690;2022-08-11T00:17:40;2.23;;;2.03;;
13291;SDS011;6714;53.056;8.690;2022-08-11T00:20:27;1.97;;;1.87;;
13291;SDS011;6714;53.056;8.690;2022-08-11T00:23:10;2.40;;;2.10;;
13291;SDS011;6714;53.056;8.690;2022-08-11T00:25:53;2.60;;;2.40;;
13291;SDS011;6714;53.056;8.690;2022-08-11T00:28:35;3.50;;;2.50;;
13291;SDS011;6714;53.056;8.690;2022-08-11T00:31:22;2.30;;;2.10;;
13291;SDS011;6714;53.056;8.690;2022-08-11T00:34:08;2.27;;;2.03;;
13291;SDS011;6714;53.056;8.690;2022-08-11T00:36:54;2.10;;;2.00;;
13291;SDS011;6714;53.056;8.690;2022-08-11T00:39:41;2.77;;;2.30;;
13291;SDS011;6714;53.056;8.690;2022-08-11T00:42:26;2.17;;;2.07;;
13291;SDS011;6714;53.056;8.690;2022-08-11T00:45:11;1.83;;;1.70;;
13291;SDS011;6714;53.056;8.690;2022-08-11T00:47:56;2.47;;;2.30;;
13291;SDS011;6714;53.056;8.690;2022-08-11T00:50:44;2.60;;;2.40;;
13291;SDS011;6714;53.056;8.690;2022-08-11T00:53:38;2.13;;;2.00;;
13291;SDS011;6714;53.056;8.690;2022-08-11T00:56:35;2.10;;;2.00;;
13291;SDS011;6714;53.056;8.690;2022-08-11T01:02:24;2.07;;;1.97;;
13291;SDS011;6714;53.056;8.690;2022-08-11T01:05:25;2.40;;;2.00;;
13291;SDS011;6714;53.056;8.690;2022-08-11T01:14:28;2.03;;;1.93;;
13291;SDS011;6714;53.056;8.690;2022-08-11T01:17:33;2.07;;;1.97;;
13291;SDS011;6714;53.056;8.690;2022-08-11T01:27:03;2.17;;;2.00;;
13291;SDS011;6714;53.056;8.690;2022-08-11T01:42:07;2.60;;;2.20;;
13291;SDS011;6714;53.056;8.690;2022-08-11T01:45:21;2.50;;;2.30;;
13291;SDS011;6714;53.056;8.690;2022-08-11T01:48:09;3.73;;;2.60;;
13291;SDS011;6714;53.056;8.690;2022-08-11T01:51:07;2.97;;;2.30;;
13291;SDS011;6714;53.056;8.690;2022-08-11T01:53:53;2.97;;;2.50;;
13291;SDS011;6714;53.056;8.690;2022-08-11T01:56:41;2.23;;;2.03;;
13291;SDS011;6714;53.056;8.690;2022-08-11T01:59:28;2.33;;;2.13;;
13291;SDS011;6714;53.056;8.690;2022-08-11T02:02:21;2.53;;;2.33;;
13291;SDS011;6714;53.056;8.690;2022-08-11T02:05:33;2.60;;;2.40;;
13291;SDS011;6714;53.056;8.690;2022-08-11T02:08:20;2.57;;;2.43;;
13291;SDS011;6714;53.056;8.690;2022-08-11T02:11:08;2.40;;;2.30;;
13291;SDS011;6714;53.056;8.690;2022-08-11T02:14:33;2.10;;;2.00;;
13291;SDS011;6714;53.056;8.690;2022-08-11T02:17:20;2.13;;;2.03;;
13291;SDS011;6714;53.056;8.690;2022-08-11T02:20:06;3.27;;;2.20;;
13291;SDS011;6714;53.056;8.690;2022-08-11T02:23:12;3.10;;;2.20;;
13291;SDS011;6714;53.056;8.690;2022-08-11T02:26:20;1.90;;;1.80;;
13291;SDS011;6714;53.056;8.690;2022-08-11T02:29:04;2.00;;;1.90;;
13291;SDS011;6714;53.056;8.690;2022-08-11T02:31:52;2.70;;;2.13;;
13291;SDS011;6714;53.056;8.690;2022-08-11T02:35:07;2.30;;;2.10;;
13291;SDS011;6714;53.056;8.690;2022-08-11T02:37:54;2.10;;;1.97;;
13291;SDS011;6714;53.056;8.690;2022-08-11T02:40:42;2.03;;;1.93;;
13291;SDS011;6714;53.056;8.690;2022-08-11T02:43:30;3.07;;;2.37;;
13291;SDS011;6714;53.056;8.690;2022-08-11T02:46:17;1.97;;;1.87;;
13291;SDS011;6714;53.056;8.690;2022-08-11T02:49:04;2.30;;;2.10;;
13291;SDS011;6714;53.056;8.690;2022-08-11T02:52:16;2.50;;;2.30;;
13291;SDS011;6714;53.056;8.690;2022-08-11T02:55:12;2.30;;;2.10;;
13291;SDS011;6714;53.056;8.690;2022-08-11T02:57:58;2.40;;;2.30;;
13291;SDS011;6714;53.056;8.690;2022-08-11T03:00:45;2.40;;;2.20;;
13291;SDS011;6714;53.056;8.690;2022-08-11T03:03:28;2.50;;;2.30;;
13291;SDS011;6714;53.056;8.690;2022-08-11T03:06:19;2.10;;;2.00;;
13291;SDS011;6714;53.056;8.690;2022-08-11T03:09:12;2.40;;;1.90;;
13291;SDS011;6714;53.056;8.690;2022-08-11T03:11:59;2.40;;;2.20;;
13291;SDS011;6714;53.056;8.690;2022-08-11T03:15:01;2.23;;;2.13;;
13291;SDS011;6714;53.056;8.690;2022-08-11T03:18:03;2.50;;;2.30;;
13291;SDS011;6714;53.056;8.690;2022-08-11T03:20:56;2.57;;;2.37;;
13291;SDS011;6714;53.056;8.690;2022-08-11T03:23:44;2.53;;;2.33;;
13291;SDS011;6714;53.056;8.690;2022-08-11T03:26:30;2.20;;;2.10;;
13291;SDS011;6714;53.056;8.690;2022-08-11T03:29:18;2.90;;;2.60;;
13291;SDS011;6714;53.056;8.690;2022-08-11T03:32:03;2.80;;;2.60;;
13291;SDS011;6714;53.056;8.690;2022-08-11T03:34:49;2.40;;;2.20;;
13291;SDS011;6714;53.056;8.690;2022-08-11T03:37:36;2.80;;;2.53;;
13291;SDS011;6714;53.056;8.690;2022-08-11T03:40:45;3.27;;;2.60;;
13291;SDS011;6714;53.056;8.690;2022-08-11T03:43:54;3.03;;;2.47;;
13291;SDS011;6714;53.056;8.690;2022-08-11T03:46:46;2.37;;;2.20;;
13291;SDS011;6714;53.056;8.690;2022-08-11T03:49:35;2.40;;;2.20;;
13291;SDS011;6714;53.056;8.690;2022-08-11T03:52:20;2.30;;;2.20;;
13291;SDS011;6714;53.056;8.690;2022-08-11T03:55:07;2.47;;;2.30;;
13291;SDS011;6714;53.056;8.690;2022-08-11T04:13:07;3.57;;;2.60;;
13291;SDS011;6714;53.056;8.690;2022-08-11T04:16:02;2.80;;;2.60;;
13291;SDS011;6714;53.056;8.690;2022-08-11T04:21:50;2.90;;;2.70;;
13291;SDS011;6714;53.056;8.690;2022-08-11T04:31:01;3.30;;;3.00;;
13291;SDS011;6714;53.056;8.690;2022-08-11T04:33:57;4.07;;;2.87;;
13291;SDS011;6714;53.056;8.690;2022-08-11T04:36:45;2.93;;;2.70;;
13291;SDS011;6714;53.056;8.690;2022-08-11T04:39:57;3.33;;;2.97;;
13291;SDS011;6714;53.056;8.690;2022-08-11T04:46:08;3.03;;;2.77;;
13291;SDS011;6714;53.056;8.690;2022-08-11T04:49:04;3.13;;;2.93;;
13291;SDS011;6714;53.056;8.690;2022-08-11T04:52:17;2.97;;;2.73;;
13291;SDS011;6714;53.056;8.690;2022-08-11T04:58:43;3.00;;;2.80;;
13291;SDS011;6714;53.056;8.690;2022-08-11T05:01:54;3.30;;;3.10;;
13291;SDS011;6714;53.056;8.690;2022-08-11T05:04:52;3.43;;;2.83;;
13291;SDS011;6714;53.056;8.690;2022-08-11T05:11:09;3.67;;;3.00;;
13291;SDS011;6714;53.056;8.690;2022-08-11T05:13:59;3.77;;;3.23;;
13291;SDS011;6714;53.056;8.690;2022-08-11T05:17:05;3.87;;;3.10;;
13291;SDS011;6714;53.056;8.690;2022-08-11T05:20:09;3.53;;;3.33;;
13291;SDS011;6714;53.056;8.690;2022-08-11T05:23:08;3.37;;;3.07;;
13291;SDS011;6714;53.056;8.690;2022-08-11T05:26:09;3.90;;;3.53;;
13291;SDS011;6714;53.056;8.690;2022-08-11T05:32:31;4.40;;;3.50;;
13291;SDS011;6714;53.056;8.690;2022-08-11T05:35:34;6.53;;;3.63;;
13291;SDS011;6714;53.056;8.690;2022-08-11T05:38:20;4.20;;;3.80;;
13291;SDS011;6714;53.056;8.690;2022-08-11T05:41:22;4.40;;;4.00;;
13291;SDS011;6714;53.056;8.690;2022-08-11T05:44:22;5.47;;;4.10;;
13291;SDS011;6714;53.056;8.690;2022-08-11T05:47:23;4.50;;;3.97;;
13291;SDS011;6714;53.056;8.690;2022-08-11T05:50:24;5.53;;;5.00;;
13291;SDS011;6714;53.056;8.690;2022-08-11T05:53:24;6.90;;;5.10;;
13291;SDS011;6714;53.056;8.690;2022-08-11T05:56:24;4.77;;;4.37;;
13291;SDS011;6714;53.056;8.690;2022-08-11T05:59:10;4.30;;;3.90;;
13291;SDS011;6714;53.056;8.690;2022-08-11T06:01:57;4.80;;;4.30;;
13291;SDS011;6714;53.056;8.690;2022-08-11T06:04:41;6.07;;;5.10;;
13291;SDS011;6714;53.056;8.690;2022-08-11T06:07:27;7.33;;;4.83;;
13291;SDS011;6714;53.056;8.690;2022-08-11T06:10:09;5.33;;;4.80;;
13291;SDS011;6714;53.056;8.690;2022-08-11T06:12:53;5.57;;;5.07;;
13291;SDS011;6714;53.056;8.690;2022-08-11T06:15:42;5.77;;;5.27;;
13291;SDS011;6714;53.056;8.690;2022-08-11T06:18:24;5.40;;;4.90;;
13291;SDS011;6714;53.056;8.690;2022-08-11T06:21:08;5.17;;;4.67;;
13291;SDS011;6714;53.056;8.690;2022-08-11T06:23:52;6.97;;;5.47;;
13291;SDS011;6714;53.056;8.690;2022-08-11T06:26:34;6.37;;;4.93;;
13291;SDS011;6714;53.056;8.690;2022-08-11T06:29:17;5.47;;;4.50;;
13291;SDS011;6714;53.056;8.690;2022-08-11T06:32:00;6.23;;;5.63;;
13291;SDS011;6714;53.056;8.690;2022-08-11T06:34:57;7.50;;;5.53;;
13291;SDS011;6714;53.056;8.690;2022-08-11T06:37:43;5.90;;;5.30;;
13291;SDS011;6714;53.056;8.690;2022-08-11T06:40:32;5.77;;;4.43;;
13291;SDS011;6714;53.056;8.690;2022-08-11T06:43:16;7.60;;;5.60;;
13291;SDS011;6714;53.056;8.690;2022-08-11T06:46:00;6.97;;;5.73;;
13291;SDS011;6714;53.056;8.690;2022-08-11T06:48:42;7.37;;;5.57;;
13291;SDS011;6714;53.056;8.690;2022-08-11T06:51:25;5.60;;;5.00;;
13291;SDS011;6714;53.056;8.690;2022-08-11T06:54:09;5.60;;;5.10;;
13291;SDS011;6714;53.056;8.690;2022-08-11T06:56:54;7.63;;;5.30;;
13291;SDS011;6714;53.056;8.690;2022-08-11T06:59:54;5.63;;;5.00;;
13291;SDS011;6714;53.056;8.690;2022-08-11T07:02:57;6.07;;;4.80;;
13291;SDS011;6714;53.056;8.690;2022-08-11T07:05:43;5.90;;;4.87;;
13291;SDS011;6714;53.056;8.690;2022-08-11T07:11:57;5.50;;;5.00;;
13291;SDS011;6714;53.056;8.690;2022-08-11T07:14:58;5.00;;;4.50;;
13291;SDS011;6714;53.056;8.690;2022-08-11T07:18:01;5.60;;;4.60;;
13291;SDS011;6714;53.056;8.690;2022-08-11T07:21:08;6.40;;;4.50;;
13291;SDS011;6714;53.056;8.690;2022-08-11T07:24:10;5.17;;;4.53;;
13291;SDS011;6714;53.056;8.690;2022-08-11T07:27:13;6.00;;;5.00;;
13291;SDS011;6714;53.056;8.690;2022-08-11T07:30:13;5.73;;;4.10;;
13291;SDS011;6714;53.056;8.690;2022-08-11T07:32:56;6.17;;;4.20;;
13291;SDS011;6714;53.056;8.690;2022-08-11T07:35:41;5.10;;;4.20;;
13291;SDS011;6714;53.056;8.690;2022-08-11T07:38:25;4.43;;;3.90;;
13291;SDS011;6714;53.056;8.690;2022-08-11T07:41:22;4.77;;;4.17;;
13291;SDS011;6714;53.056;8.690;2022-08-11T07:44:06;5.47;;;4.10;;
13291;SDS011;6714;53.056;8.690;2022-08-11T07:46:52;6.03;;;4.43;;
13291;SDS011;6714;53.056;8.690;2022-08-11T07:49:53;4.37;;;4.07;;
13291;SDS011;6714;53.056;8.690;2022-08-11T07:52:54;6.07;;;4.30;;
13291;SDS011;6714;53.056;8.690;2022-08-11T07:55:36;5.47;;;4.57;;
13291;SDS011;6714;53.056;8.690;2022-08-11T07:58:19;4.67;;;4.07;;
13291;SDS011;6714;53.056;8.690;2022-08-11T08:01:22;6.33;;;4.13;;
13291;SDS011;6714;53.056;8.690;2022-08-11T08:04:22;4.43;;;4.00;;
13291;SDS011;6714;53.056;8.690;2022-08-11T08:07:22;5.93;;;4.50;;
13291;SDS011;6714;53.056;8.690;2022-08-11T08:10:22;6.77;;;4.10;;
13291;SDS011;6714;53.056;8.690;2022-08-11T08:13:22;9.13;;;4.77;;
13291;SDS011;6714;53.056;8.690;2022-08-11T08:16:24;6.73;;;4.10;;
13291;SDS011;6714;53.056;8.690;2022-08-11T08:19:24;8.70;;;4.83;;
13291;SDS011;6714;53.056;8.690;2022-08-11T08:22:07;5.17;;;3.40;;
13291;SDS011;6714;53.056;8.690;2022-08-11T08:24:49;4.10;;;3.63;;
13291;SDS011;6714;53.056;8.690;2022-08-11T08:27:32;8.47;;;4.10;;
13291;SDS011;6714;53.056;8.690;2022-08-11T08:30:15;4.10;;;3.40;;
13291;SDS011;6714;53.056;8.690;2022-08-11T08:33:21;4.87;;;3.70;;
13291;SDS011;6714;53.056;8.690;2022-08-11T08:36:04;8.70;;;4.53;;
13291;SDS011;6714;53.056;8.690;2022-08-11T08:38:56;5.53;;;3.83;;
13291;SDS011;6714;53.056;8.690;2022-08-11T08:41:38;3.80;;;3.10;;
13291;SDS011;6714;53.056;8.690;2022-08-11T08:44:21;3.47;;;3.17;;
13291;SDS011;6714;53.056;8.690;2022-08-11T08:47:05;3.47;;;3.17;;
13291;SDS011;6714;53.056;8.690;2022-08-11T08:49:50;4.90;;;2.70;;
13291;SDS011;6714;53.056;8.690;2022-08-11T08:52:36;2.60;;;2.33;;
13291;SDS011;6714;53.056;8.690;2022-08-11T08:55:20;4.67;;;2.50;;
13291;SDS011;6714;53.056;8.690;2022-08-11T08:58:02;3.77;;;2.60;;
13291;SDS011;6714;53.056;8.690;2022-08-11T09:00:45;4.23;;;2.90;;
13291;SDS011;6714;53.056;8.690;2022-08-11T09:03:27;2.67;;;2.47;;
13291;SDS011;6714;53.056;8.690;2022-08-11T09:06:12;3.13;;;2.87;;
13291;SDS011;6714;53.056;8.690;2022-08-11T09:08:56;2.60;;;2.40;;
13291;SDS011;6714;53.056;8.690;2022-08-11T09:11:39;3.27;;;2.40;;
13291;SDS011;6714;53.056;8.690;2022-08-11T09:14:33;3.00;;;2.20;;
13291;SDS011;6714;53.056;8.690;2022-08-11T09:17:31;2.30;;;2.10;;
13291;SDS011;6714;53.056;8.690;2022-08-11T09:20:16;2.47;;;1.90;;
13291;SDS011;6714;53.056;8.690;2022-08-11T09:23:02;1.95;;;1.83;;
13291;SDS011;6714;53.056;8.690;2022-08-11T09:26:02;1.90;;;1.80;;
13291;SDS011;6714;53.056;8.690;2022-08-11T09:29:02;2.08;;;1.90;;
13291;SDS011;6714;53.056;8.690;2022-08-11T09:31:45;2.53;;;1.80;;
13291;SDS011;6714;53.056;8.690;2022-08-11T09:34:28;1.60;;;1.50;;
13291;SDS011;6714;53.056;8.690;2022-08-11T09:37:11;2.80;;;1.70;;
13291;SDS011;6714;53.056;8.690;2022-08-11T09:40:13;1.80;;;1.70;;
13291;SDS011;6714;53.056;8.690;2022-08-11T09:43:12;1.70;;;1.60;;
13291;SDS011;6714;53.056;8.690;2022-08-11T09:46:13;2.20;;;1.60;;
13291;SDS011;6714;53.056;8.690;2022-08-11T09:48:57;1.73;;;1.63;;
13291;SDS011;6714;53.056;8.690;2022-08-11T09:51:40;2.20;;;1.80;;
13291;SDS011;6714;53.056;8.690;2022-08-11T09:54:22;1.73;;;1.63;;
13291;SDS011;6714;53.056;8.690;2022-08-11T09:57:07;1.88;;;1.77;;
13291;SDS011;6714;53.056;8.690;2022-08-11T10:00:09;1.65;;;1.65;;
13291;SDS011;6714;53.056;8.690;2022-08-11T10:02:51;1.60;;;1.60;;
13291;SDS011;6714;53.056;8.690;2022-08-11T10:05:34;1.65;;;1.65;;
13291;SDS011;6714;53.056;8.690;2022-08-11T10:08:36;1.73;;;1.73;;
13291;SDS011;6714;53.056;8.690;2022-08-11T10:11:20;1.90;;;1.80;;
13291;SDS011;6714;53.056;8.690;2022-08-11T10:14:05;1.60;;;1.60;;
13291;SDS011;6714;53.056;8.690;2022-08-11T10:17:07;1.40;;;1.30;;
13291;SDS011;6714;53.056;8.690;2022-08-11T10:19:50;2.47;;;1.60;;
13291;SDS011;6714;53.056;8.690;2022-08-11T10:22:33;1.75;;;1.65;;
13291;SDS011;6714;53.056;8.690;2022-08-11T10:25:34;1.42;;;1.38;;
13291;SDS011;6714;53.056;8.690;2022-08-11T10:28:35;1.33;;;1.33;;
13291;SDS011;6714;53.056;8.690;2022-08-11T10:31:19;1.40;;;1.30;;
13291;SDS011;6714;53.056;8.690;2022-08-11T10:34:19;1.48;;;1.35;;
13291;SDS011;6714;53.056;8.690;2022-08-11T10:37:04;2.25;;;1.60;;
13291;SDS011;6714;53.056;8.690;2022-08-11T10:39:51;1.75;;;1.40;;
13291;SDS011;6714;53.056;8.690;2022-08-11T10:42:35;1.50;;;1.40;;
13291;SDS011;6714;53.056;8.690;2022-08-11T10:45:36;1.60;;;1.50;;
13291;SDS011;6714;53.056;8.690;2022-08-11T10:48:38;1.40;;;1.40;;
13291;SDS011;6714;53.056;8.690;2022-08-11T10:51:20;1.70;;;1.60;;
13291;SDS011;6714;53.056;8.690;2022-08-11T10:54:21;1.30;;;1.30;;
13291;SDS011;6714;53.056;8.690;2022-08-11T10:57:21;1.48;;;1.33;;
13291;SDS011;6714;53.056;8.690;2022-08-11T11:00:21;1.30;;;1.30;;
13291;SDS011;6714;53.056;8.690;2022-08-11T11:03:03;1.38;;;1.27;;
13291;SDS011;6714;53.056;8.690;2022-08-11T11:05:48;1.40;;;1.30;;
13291;SDS011;6714;53.056;8.690;2022-08-11T11:08:31;1.27;;;1.27;;
13291;SDS011;6714;53.056;8.690;2022-08-11T11:11:33;1.50;;;1.40;;
13291;SDS011;6714;53.056;8.690;2022-08-11T11:14:34;1.10;;;1.10;;
13291;SDS011;6714;53.056;8.690;2022-08-11T11:17:36;1.35;;;1.35;;
13291;SDS011;6714;53.056;8.690;2022-08-11T11:20:40;1.17;;;1.10;;
13291;SDS011;6714;53.056;8.690;2022-08-11T11:23:26;1.27;;;1.27;;
13291;SDS011;6714;53.056;8.690;2022-08-11T11:26:18;1.00;;;1.00;;
13291;SDS011;6714;53.056;8.690;2022-08-11T11:29:09;1.00;;;1.00;;
13291;SDS011;6714;53.056;8.690;2022-08-11T11:32:08;1.10;;;1.10;;
13291;SDS011;6714;53.056;8.690;2022-08-11T11:34:58;1.13;;;1.13;;
13291;SDS011;6714;53.056;8.690;2022-08-11T11:37:43;1.00;;;1.00;;
13291;SDS011;6714;53.056;8.690;2022-08-11T11:40:27;1.13;;;1.13;;
13291;SDS011;6714;53.056;8.690;2022-08-11T11:43:09;1.10;;;1.10;;
13291;SDS011;6714;53.056;8.690;2022-08-11T11:45:51;1.13;;;1.13;;
13291;SDS011;6714;53.056;8.690;2022-08-11T11:48:34;2.53;;;1.13;;
13291;SDS011;6714;53.056;8.690;2022-08-11T11:51:18;0.93;;;0.90;;
13291;SDS011;6714;53.056;8.690;2022-08-11T11:54:01;1.00;;;1.00;;
13291;SDS011;6714;53.056;8.690;2022-08-11T11:56:45;1.20;;;1.02;;
13291;SDS011;6714;53.056;8.690;2022-08-11T11:59:28;1.25;;;1.20;;
13291;SDS011;6714;53.056;8.690;2022-08-11T12:02:28;1.00;;;1.00;;
13291;SDS011;6714;53.056;8.690;2022-08-11T12:05:10;1.33;;;1.23;;
13291;SDS011;6714;53.056;8.690;2022-08-11T12:07:54;1.00;;;1.00;;
13291;SDS011;6714;53.056;8.690;2022-08-11T12:10:57;1.10;;;1.10;;
13291;SDS011;6714;53.056;8.690;2022-08-11T12:13:56;1.27;;;1.17;;
13291;SDS011;6714;53.056;8.690;2022-08-11T12:16:42;1.05;;;1.05;;
13291;SDS011;6714;53.056;8.690;2022-08-11T12:19:25;1.00;;;1.00;;
13291;SDS011;6714;53.056;8.690;2022-08-11T12:22:08;1.27;;;1.20;;
13291;SDS011;6714;53.056;8.690;2022-08-11T12:25:08;1.15;;;1.13;;
13291;SDS011;6714;53.056;8.690;2022-08-11T12:28:08;1.10;;;1.10;;
13291;SDS011;6714;53.056;8.690;2022-08-11T12:30:52;1.23;;;1.13;;
13291;SDS011;6714;53.056;8.690;2022-08-11T12:33:35;1.15;;;1.15;;
13291;SDS011;6714;53.056;8.690;2022-08-11T12:36:17;1.13;;;1.13;;
13291;SDS011;6714;53.056;8.690;2022-08-11T12:39:01;1.35;;;1.13;;
13291;SDS011;6714;53.056;8.690;2022-08-11T12:41:44;1.20;;;1.20;;
13291;SDS011;6714;53.056;8.690;2022-08-11T12:44:44;1.00;;;1.00;;
13291;SDS011;6714;53.056;8.690;2022-08-11T12:47:49;1.17;;;1.00;;
13291;SDS011;6714;53.056;8.690;2022-08-11T12:51:01;1.65;;;1.20;;
13291;SDS011;6714;53.056;8.690;2022-08-11T12:54:05;1.13;;;1.10;;
13291;SDS011;6714;53.056;8.690;2022-08-11T12:56:52;1.08;;;1.00;;
13291;SDS011;6714;53.056;8.690;2022-08-11T12:59:53;1.10;;;1.10;;
13291;SDS011;6714;53.056;8.690;2022-08-11T13:02:54;1.17;;;1.13;;
13291;SDS011;6714;53.056;8.690;2022-08-11T13:05:57;1.25;;;1.15;;
13291;SDS011;6714;53.056;8.690;2022-08-11T13:08:39;1.20;;;1.20;;
13291;SDS011;6714;53.056;8.690;2022-08-11T13:11:21;1.48;;;1.10;;
13291;SDS011;6714;53.056;8.690;2022-08-11T13:14:22;1.95;;;1.20;;
13291;SDS011;6714;53.056;8.690;2022-08-11T13:17:04;1.13;;;1.13;;
13291;SDS011;6714;53.056;8.690;2022-08-11T13:20:05;2.95;;;1.30;;
13291;SDS011;6714;53.056;8.690;2022-08-11T13:22:50;1.00;;;1.00;;
13291;SDS011;6714;53.056;8.690;2022-08-11T13:25:33;1.30;;;1.25;;
13291;SDS011;6714;53.056;8.690;2022-08-11T13:28:15;1.30;;;1.20;;
13291;SDS011;6714;53.056;8.690;2022-08-11T13:31:00;1.25;;;1.20;;
13291;SDS011;6714;53.056;8.690;2022-08-11T13:33:53;2.15;;;1.20;;
13291;SDS011;6714;53.056;8.690;2022-08-11T13:36:37;1.17;;;1.17;;
13291;SDS011;6714;53.056;8.690;2022-08-11T13:39:20;1.63;;;1.23;;
13291;SDS011;6714;53.056;8.690;2022-08-11T13:42:03;1.90;;;1.40;;
13291;SDS011;6714;53.056;8.690;2022-08-11T13:44:45;1.55;;;1.30;;
13291;SDS011;6714;53.056;8.690;2022-08-11T13:47:28;1.20;;;1.20;;
13291;SDS011;6714;53.056;8.690;2022-08-11T13:50:13;1.67;;;1.33;;
13291;SDS011;6714;53.056;8.690;2022-08-11T13:52:57;1.05;;;1.05;;
13291;SDS011;6714;53.056;8.690;2022-08-11T13:55:39;1.10;;;1.10;;
13291;SDS011;6714;53.056;8.690;2022-08-11T13:58:22;1.23;;;1.13;;
13291;SDS011;6714;53.056;8.690;2022-08-11T14:01:04;1.17;;;1.17;;
13291;SDS011;6714;53.056;8.690;2022-08-11T14:03:47;1.40;;;1.30;;
13291;SDS011;6714;53.056;8.690;2022-08-11T14:06:30;1.27;;;1.23;;
13291;SDS011;6714;53.056;8.690;2022-08-11T14:09:15;1.88;;;1.20;;
13291;SDS011;6714;53.056;8.690;2022-08-11T14:12:01;2.65;;;1.55;;
13291;SDS011;6714;53.056;8.690;2022-08-11T14:15:02;1.23;;;1.15;;
13291;SDS011;6714;53.056;8.690;2022-08-11T14:17:47;1.98;;;1.20;;
13291;SDS011;6714;53.056;8.690;2022-08-11T14:20:32;1.13;;;1.13;;
13291;SDS011;6714;53.056;8.690;2022-08-11T14:23:30;1.42;;;1.33;;
13291;SDS011;6714;53.056;8.690;2022-08-11T14:26:16;3.58;;;1.45;;
13291;SDS011;6714;53.056;8.690;2022-08-11T14:29:07;1.30;;;1.20;;
13291;SDS011;6714;53.056;8.690;2022-08-11T14:31:51;1.50;;;1.40;;
13291;SDS011;6714;53.056;8.690;2022-08-11T14:34:35;1.58;;;1.40;;
13291;SDS011;6714;53.056;8.690;2022-08-11T14:37:20;2.30;;;1.40;;
13291;SDS011;6714;53.056;8.690;2022-08-11T14:40:04;1.15;;;1.15;;
13291;SDS011;6714;53.056;8.690;2022-08-11T14:43:08;1.30;;;1.15;;
13291;SDS011;6714;53.056;8.690;2022-08-11T14:46:07;1.48;;;1.38;;
13291;SDS011;6714;53.056;8.690;2022-08-11T14:49:07;1.30;;;1.20;;
13291;SDS011;6714;53.056;8.690;2022-08-11T14:51:50;1.70;;;1.60;;
13291;SDS011;6714;53.056;8.690;2022-08-11T14:54:34;2.58;;;1.40;;
13291;SDS011;6714;53.056;8.690;2022-08-11T14:57:31;1.35;;;1.25;;
13291;SDS011;6714;53.056;8.690;2022-08-11T15:00:17;1.30;;;1.30;;
13291;SDS011;6714;53.056;8.690;2022-08-11T15:03:00;1.52;;;1.40;;
13291;SDS011;6714;53.056;8.690;2022-08-11T15:05:52;1.50;;;1.40;;
13291;SDS011;6714;53.056;8.690;2022-08-11T15:08:36;1.35;;;1.30;;
13291;SDS011;6714;53.056;8.690;2022-08-11T15:11:34;1.85;;;1.73;;
13291;SDS011;6714;53.056;8.690;2022-08-11T15:14:35;1.58;;;1.48;;
13291;SDS011;6714;53.056;8.690;2022-08-11T15:17:37;1.90;;;1.45;;
13291;SDS011;6714;53.056;8.690;2022-08-11T15:20:20;1.27;;;1.17;;
13291;SDS011;6714;53.056;8.690;2022-08-11T15:23:20;1.20;;;1.20;;
13291;SDS011;6714;53.056;8.690;2022-08-11T15:26:21;1.40;;;1.30;;
13291;SDS011;6714;53.056;8.690;2022-08-11T15:29:27;1.50;;;1.40;;
13291;SDS011;6714;53.056;8.690;2022-08-11T15:32:28;1.40;;;1.35;;
13291;SDS011;6714;53.056;8.690;2022-08-11T15:35:31;1.50;;;1.48;;
13291;SDS011;6714;53.056;8.690;2022-08-11T15:38:33;1.30;;;1.30;;
13291;SDS011;6714;53.056;8.690;2022-08-11T15:41:16;2.08;;;1.50;;
13291;SDS011;6714;53.056;8.690;2022-08-11T15:44:16;1.40;;;1.35;;
13291;SDS011;6714;53.056;8.690;2022-08-11T15:47:16;2.13;;;1.48;;
13291;SDS011;6714;53.056;8.690;2022-08-11T15:49:58;1.60;;;1.50;;
13291;SDS011;6714;53.056;8.690;2022-08-11T15:52:48;1.52;;;1.50;;
13291;SDS011;6714;53.056;8.690;2022-08-11T15:55:33;2.38;;;1.50;;
13291;SDS011;6714;53.056;8.690;2022-08-11T15:58:16;1.52;;;1.42;;
13291;SDS011;6714;53.056;8.690;2022-08-11T16:01:17;1.35;;;1.25;;
13291;SDS011;6714;53.056;8.690;2022-08-11T16:04:19;1.55;;;1.48;;
13291;SDS011;6714;53.056;8.690;2022-08-11T16:07:04;2.42;;;1.52;;
13291;SDS011;6714;53.056;8.690;2022-08-11T16:09:49;2.15;;;1.48;;
13291;SDS011;6714;53.056;8.690;2022-08-11T16:12:34;1.50;;;1.40;;
13291;SDS011;6714;53.056;8.690;2022-08-11T16:15:16;1.60;;;1.50;;
13291;SDS011;6714;53.056;8.690;2022-08-11T16:18:18;2.38;;;1.60;;
13291;SDS011;6714;53.056;8.690;2022-08-11T16:21:01;1.73;;;1.63;;
13291;SDS011;6714;53.056;8.690;2022-08-11T16:23:45;1.52;;;1.48;;
13291;SDS011;6714;53.056;8.690;2022-08-11T16:26:34;1.58;;;1.40;;
13291;SDS011;6714;53.056;8.690;2022-08-11T16:29:21;2.13;;;1.58;;
13291;SDS011;6714;53.056;8.690;2022-08-11T16:32:05;2.00;;;1.70;;
13291;SDS011;6714;53.056;8.690;2022-08-11T16:34:57;1.60;;;1.50;;
13291;SDS011;6714;53.056;8.690;2022-08-11T16:37:58;1.65;;;1.55;;
13291;SDS011;6714;53.056;8.690;2022-08-11T16:40:59;1.77;;;1.30;;
13291;SDS011;6714;53.056;8.690;2022-08-11T16:43:44;1.50;;;1.50;;
13291;SDS011;6714;53.056;8.690;2022-08-11T16:46:44;1.25;;;1.25;;
13291;SDS011;6714;53.056;8.690;2022-08-11T16:49:42;2.40;;;1.70;;
13291;SDS011;6714;53.056;8.690;2022-08-11T16:52:25;1.92;;;1.67;;
13291;SDS011;6714;53.056;8.690;2022-08-11T16:55:07;1.40;;;1.40;;
13291;SDS011;6714;53.056;8.690;2022-08-11T16:57:50;1.67;;;1.58;;
13291;SDS011;6714;53.056;8.690;2022-08-11T17:00:51;1.48;;;1.42;;
13291;SDS011;6714;53.056;8.690;2022-08-11T17:03:33;1.60;;;1.50;;
13291;SDS011;6714;53.056;8.690;2022-08-11T17:06:34;1.90;;;1.80;;
13291;SDS011;6714;53.056;8.690;2022-08-11T17:09:37;1.83;;;1.70;;
13291;SDS011;6714;53.056;8.690;2022-08-11T17:12:37;1.73;;;1.63;;
13291;SDS011;6714;53.056;8.690;2022-08-11T17:15:38;3.55;;;1.58;;
13291;SDS011;6714;53.056;8.690;2022-08-11T17:18:43;1.88;;;1.73;;
13291;SDS011;6714;53.056;8.690;2022-08-11T17:21:26;1.80;;;1.67;;
13291;SDS011;6714;53.056;8.690;2022-08-11T17:24:09;3.25;;;1.98;;
13291;SDS011;6714;53.056;8.690;2022-08-11T17:26:54;1.88;;;1.77;;
13291;SDS011;6714;53.056;8.690;2022-08-11T17:29:37;2.13;;;1.70;;
13291;SDS011;6714;53.056;8.690;2022-08-11T17:32:22;2.10;;;1.60;;
13291;SDS011;6714;53.056;8.690;2022-08-11T17:35:24;2.08;;;1.88;;
13291;SDS011;6714;53.056;8.690;2022-08-11T17:38:15;5.53;;;3.10;;
13291;SDS011;6714;53.056;8.690;2022-08-11T17:40:58;4.43;;;2.30;;
13291;SDS011;6714;53.056;8.690;2022-08-11T17:43:59;4.28;;;2.50;;
13291;SDS011;6714;53.056;8.690;2022-08-11T17:46:59;2.28;;;1.80;;
13291;SDS011;6714;53.056;8.690;2022-08-11T17:50:01;2.60;;;2.00;;
13291;SDS011;6714;53.056;8.690;2022-08-11T17:52:45;3.10;;;2.28;;
13291;SDS011;6714;53.056;8.690;2022-08-11T17:55:45;3.22;;;2.22;;
13291;SDS011;6714;53.056;8.690;2022-08-11T17:58:46;2.15;;;1.90;;
13291;SDS011;6714;53.056;8.690;2022-08-11T18:01:47;1.83;;;1.67;;
13291;SDS011;6714;53.056;8.690;2022-08-11T18:04:31;2.13;;;2.03;;
13291;SDS011;6714;53.056;8.690;2022-08-11T18:07:12;2.38;;;2.17;;
13291;SDS011;6714;53.056;8.690;2022-08-11T18:10:14;2.40;;;1.80;;
13291;SDS011;6714;53.056;8.690;2022-08-11T18:13:15;4.28;;;2.00;;
13291;SDS011;6714;53.056;8.690;2022-08-11T18:16:16;1.90;;;1.80;;
13291;SDS011;6714;53.056;8.690;2022-08-11T18:19:17;2.10;;;2.00;;
13291;SDS011;6714;53.056;8.690;2022-08-11T18:22:19;2.17;;;1.90;;
13291;SDS011;6714;53.056;8.690;2022-08-11T18:25:21;2.35;;;1.90;;
13291;SDS011;6714;53.056;8.690;2022-08-11T18:28:23;1.98;;;1.77;;
13291;SDS011;6714;53.056;8.690;2022-08-11T18:31:24;1.90;;;1.80;;
13291;SDS011;6714;53.056;8.690;2022-08-11T18:34:27;3.05;;;2.00;;
13291;SDS011;6714;53.056;8.690;2022-08-11T18:37:29;2.53;;;1.88;;